sensor_id;sensor_type;location;lat;lon;timestamp;temperature;humidity
22167;DHT22;11249;52.468;13.776;2022-09-09T00:04:33;15.00;99.90
22167;DHT22;11249;52.468;13.776;2022-09-09T00:07:25;15.00;99.90
22167;DHT22;11249;52.468;13.776;2022-09-09T00:12:54;14.90;99.90
22167;DHT22;11249;52.468;13.776;2022-09-09T00:21:36;14.90;99.90
22167;DHT22;11249;52.468;13.776;2022-09-09T00:24:45;14.90;99.90
22167;DHT22;11249;52.468;13.776;2022-09-09T00:27:33;14.90;99.90
22167;DHT22;11249;52.468;13.776;2022-09-09T00:32:48;14.90;99.90
22167;DHT22;11249;52.468;13.776;2022-09-09T00:35:22;14.80;99.90
22167;DHT22;11249;52.468;13.776;2022-09-09T00:37:53;14.80;99.90
22167;DHT22;11249;52.468;13.776;2022-09-09T00:40:38;14.80;99.90
22167;DHT22;11249;52.468;13.776;2022-09-09T00:43:27;14.80;99.90
22167;DHT22;11249;52.468;13.776;2022-09-09T00:48:57;14.70;99.90
22167;DHT22;11249;52.468;13.776;2022-09-09T00:59:37;14.70;99.90
22167;DHT22;11249;52.468;13.776;2022-09-09T01:02:28;14.80;99.90
22167;DHT22;11249;52.468;13.776;2022-09-09T01:05:05;14.80;99.90
22167;DHT22;11249;52.468;13.776;2022-09-09T01:07:32;14.80;99.90
22167;DHT22;11249;52.468;13.776;2022-09-09T01:10:00;14.80;99.90
22167;DHT22;11249;52.468;13.776;2022-09-09T01:12:41;14.80;99.90
22167;DHT22;11249;52.468;13.776;2022-09-09T01:15:14;14.70;99.90
22167;DHT22;11249;52.468;13.776;2022-09-09T01:17:48;14.70;99.90
22167;DHT22;11249;52.468;13.776;2022-09-09T01:20:23;14.70;99.90
22167;DHT22;11249;52.468;13.776;2022-09-09T01:23:14;14.60;99.90
22167;DHT22;11249;52.468;13.776;2022-09-09T01:28:14;14.60;99.90
22167;DHT22;11249;52.468;13.776;2022-09-09T01:30:42;14.50;99.90
22167;DHT22;11249;52.468;13.776;2022-09-09T01:33:13;14.40;99.90
22167;DHT22;11249;52.468;13.776;2022-09-09T01:36:09;14.40;99.90
22167;DHT22;11249;52.468;13.776;2022-09-09T01:38:39;14.30;99.90
22167;DHT22;11249;52.468;13.776;2022-09-09T01:41:06;14.20;99.90
22167;DHT22;11249;52.468;13.776;2022-09-09T01:43:33;14.20;99.90
22167;DHT22;11249;52.468;13.776;2022-09-09T01:46:01;14.10;99.90
22167;DHT22;11249;52.468;13.776;2022-09-09T01:48:29;14.10;99.90
22167;DHT22;11249;52.468;13.776;2022-09-09T01:50:56;14.10;99.90
22167;DHT22;11249;52.468;13.776;2022-09-09T01:53:23;14.00;99.90
22167;DHT22;11249;52.468;13.776;2022-09-09T01:56:02;14.00;99.90
22167;DHT22;11249;52.468;13.776;2022-09-09T01:59:09;13.90;99.90
22167;DHT22;11249;52.468;13.776;2022-09-09T02:06:53;13.80;99.90
22167;DHT22;11249;52.468;13.776;2022-09-09T02:09:24;13.70;99.90
22167;DHT22;11249;52.468;13.776;2022-09-09T02:12:02;13.70;99.90
22167;DHT22;11249;52.468;13.776;2022-09-09T02:14:36;13.70;99.90
22167;DHT22;11249;52.468;13.776;2022-09-09T02:17:10;13.60;99.90
22167;DHT22;11249;52.468;13.776;2022-09-09T02:19:41;13.60;99.90
22167;DHT22;11249;52.468;13.776;2022-09-09T02:22:11;13.60;99.90
22167;DHT22;11249;52.468;13.776;2022-09-09T02:24:39;13.60;99.90
22167;DHT22;11249;52.468;13.776;2022-09-09T02:27:08;13.50;99.90
22167;DHT22;11249;52.468;13.776;2022-09-09T02:29:39;13.50;99.90
22167;DHT22;11249;52.468;13.776;2022-09-09T02:32:20;13.50;99.90
22167;DHT22;11249;52.468;13.776;2022-09-09T02:35:02;13.40;99.90
22167;DHT22;11249;52.468;13.776;2022-09-09T02:37:38;13.40;99.90
22167;DHT22;11249;52.468;13.776;2022-09-09T02:40:07;13.40;99.90
22167;DHT22;11249;52.468;13.776;2022-09-09T02:42:42;13.30;99.90
22167;DHT22;11249;52.468;13.776;2022-09-09T02:45:12;13.30;99.90
22167;DHT22;11249;52.468;13.776;2022-09-09T02:50:35;13.30;99.90
22167;DHT22;11249;52.468;13.776;2022-09-09T02:53:22;13.20;99.90
22167;DHT22;11249;52.468;13.776;2022-09-09T02:56:06;13.20;99.90
22167;DHT22;11249;52.468;13.776;2022-09-09T02:58:36;13.20;99.90
22167;DHT22;11249;52.468;13.776;2022-09-09T03:01:03;13.10;99.90
22167;DHT22;11249;52.468;13.776;2022-09-09T03:03:30;13.10;99.90
22167;DHT22;11249;52.468;13.776;2022-09-09T03:05:58;13.10;99.90
22167;DHT22;11249;52.468;13.776;2022-09-09T03:08:24;13.10;99.90
22167;DHT22;11249;52.468;13.776;2022-09-09T03:10:51;13.00;99.90
22167;DHT22;11249;52.468;13.776;2022-09-09T03:13:21;13.00;99.90
22167;DHT22;11249;52.468;13.776;2022-09-09T03:15:48;13.00;99.90
22167;DHT22;11249;52.468;13.776;2022-09-09T03:18:15;13.00;99.90
22167;DHT22;11249;52.468;13.776;2022-09-09T03:20:42;13.00;99.90
22167;DHT22;11249;52.468;13.776;2022-09-09T03:23:09;12.90;99.90
22167;DHT22;11249;52.468;13.776;2022-09-09T03:25:47;13.00;99.90
22167;DHT22;11249;52.468;13.776;2022-09-09T03:28:14;13.00;99.90
22167;DHT22;11249;52.468;13.776;2022-09-09T03:30:41;13.10;99.90
22167;DHT22;11249;52.468;13.776;2022-09-09T03:33:08;13.10;99.90
22167;DHT22;11249;52.468;13.776;2022-09-09T03:35:35;13.10;99.90
22167;DHT22;11249;52.468;13.776;2022-09-09T03:38:02;13.10;99.90
22167;DHT22;11249;52.468;13.776;2022-09-09T03:40:29;13.10;99.90
22167;DHT22;11249;52.468;13.776;2022-09-09T03:42:57;13.10;99.90
22167;DHT22;11249;52.468;13.776;2022-09-09T03:45:23;13.10;99.90
22167;DHT22;11249;52.468;13.776;2022-09-09T03:47:50;13.20;99.90
22167;DHT22;11249;52.468;13.776;2022-09-09T03:50:17;13.20;99.90
22167;DHT22;11249;52.468;13.776;2022-09-09T03:52:44;13.20;99.90
22167;DHT22;11249;52.468;13.776;2022-09-09T03:55:12;13.30;99.90
22167;DHT22;11249;52.468;13.776;2022-09-09T03:57:39;13.30;99.90
22167;DHT22;11249;52.468;13.776;2022-09-09T04:00:07;13.30;99.90
22167;DHT22;11249;52.468;13.776;2022-09-09T04:02:34;13.20;99.90
22167;DHT22;11249;52.468;13.776;2022-09-09T04:05:00;13.20;99.90
22167;DHT22;11249;52.468;13.776;2022-09-09T04:07:27;13.20;99.90
22167;DHT22;11249;52.468;13.776;2022-09-09T04:09:55;13.20;99.90
22167;DHT22;11249;52.468;13.776;2022-09-09T04:12:21;13.20;99.90
22167;DHT22;11249;52.468;13.776;2022-09-09T04:14:48;13.10;99.90
22167;DHT22;11249;52.468;13.776;2022-09-09T04:17:15;13.10;99.90
22167;DHT22;11249;52.468;13.776;2022-09-09T04:19:42;13.20;99.90
22167;DHT22;11249;52.468;13.776;2022-09-09T04:22:08;13.20;99.90
22167;DHT22;11249;52.468;13.776;2022-09-09T04:24:35;13.20;99.90
22167;DHT22;11249;52.468;13.776;2022-09-09T04:27:02;13.10;99.90
22167;DHT22;11249;52.468;13.776;2022-09-09T04:29:29;13.10;99.90
22167;DHT22;11249;52.468;13.776;2022-09-09T04:31:56;13.00;99.90
22167;DHT22;11249;52.468;13.776;2022-09-09T04:34:22;13.00;99.90
22167;DHT22;11249;52.468;13.776;2022-09-09T04:36:50;13.00;99.90
22167;DHT22;11249;52.468;13.776;2022-09-09T04:39:19;12.90;99.90
22167;DHT22;11249;52.468;13.776;2022-09-09T04:41:46;12.90;99.90
22167;DHT22;11249;52.468;13.776;2022-09-09T04:44:13;12.90;99.90
22167;DHT22;11249;52.468;13.776;2022-09-09T04:46:40;12.90;99.90
22167;DHT22;11249;52.468;13.776;2022-09-09T04:49:07;12.90;99.90
22167;DHT22;11249;52.468;13.776;2022-09-09T04:51:40;12.90;99.90
22167;DHT22;11249;52.468;13.776;2022-09-09T04:54:07;12.90;99.90
22167;DHT22;11249;52.468;13.776;2022-09-09T04:56:33;12.90;99.90
22167;DHT22;11249;52.468;13.776;2022-09-09T04:59:00;12.90;99.90
22167;DHT22;11249;52.468;13.776;2022-09-09T05:01:29;12.90;99.90
22167;DHT22;11249;52.468;13.776;2022-09-09T05:03:56;12.90;99.90
22167;DHT22;11249;52.468;13.776;2022-09-09T05:06:22;12.90;99.90
22167;DHT22;11249;52.468;13.776;2022-09-09T05:08:49;12.90;99.90
22167;DHT22;11249;52.468;13.776;2022-09-09T05:11:17;12.90;99.90
22167;DHT22;11249;52.468;13.776;2022-09-09T05:13:45;13.00;99.90
22167;DHT22;11249;52.468;13.776;2022-09-09T05:16:13;13.00;99.90
22167;DHT22;11249;52.468;13.776;2022-09-09T05:18:40;13.00;99.90
22167;DHT22;11249;52.468;13.776;2022-09-09T05:21:10;13.00;99.90
22167;DHT22;11249;52.468;13.776;2022-09-09T05:23:37;13.10;99.90
22167;DHT22;11249;52.468;13.776;2022-09-09T05:26:04;13.10;99.90
22167;DHT22;11249;52.468;13.776;2022-09-09T05:28:34;13.20;99.90
22167;DHT22;11249;52.468;13.776;2022-09-09T05:31:03;13.20;99.90
22167;DHT22;11249;52.468;13.776;2022-09-09T05:33:35;13.20;99.90
22167;DHT22;11249;52.468;13.776;2022-09-09T05:36:07;13.30;99.90
22167;DHT22;11249;52.468;13.776;2022-09-09T05:38:35;13.30;99.90
22167;DHT22;11249;52.468;13.776;2022-09-09T05:41:03;13.40;99.90
22167;DHT22;11249;52.468;13.776;2022-09-09T05:43:30;13.40;99.90
22167;DHT22;11249;52.468;13.776;2022-09-09T05:46:19;13.50;99.90
22167;DHT22;11249;52.468;13.776;2022-09-09T05:48:47;13.60;99.90
22167;DHT22;11249;52.468;13.776;2022-09-09T05:51:16;13.60;99.90
22167;DHT22;11249;52.468;13.776;2022-09-09T05:53:45;13.70;99.90
22167;DHT22;11249;52.468;13.776;2022-09-09T05:56:20;13.70;99.90
22167;DHT22;11249;52.468;13.776;2022-09-09T05:58:49;13.80;99.90
22167;DHT22;11249;52.468;13.776;2022-09-09T06:01:18;13.80;99.90
22167;DHT22;11249;52.468;13.776;2022-09-09T06:03:47;13.90;99.90
22167;DHT22;11249;52.468;13.776;2022-09-09T06:06:17;13.90;99.90
22167;DHT22;11249;52.468;13.776;2022-09-09T06:08:44;14.00;99.90
22167;DHT22;11249;52.468;13.776;2022-09-09T06:11:14;14.00;99.90
22167;DHT22;11249;52.468;13.776;2022-09-09T06:13:41;14.00;99.90
22167;DHT22;11249;52.468;13.776;2022-09-09T06:16:10;14.00;99.90
22167;DHT22;11249;52.468;13.776;2022-09-09T06:18:38;14.10;99.90
22167;DHT22;11249;52.468;13.776;2022-09-09T06:21:07;14.10;99.90
22167;DHT22;11249;52.468;13.776;2022-09-09T06:23:35;14.10;99.90
22167;DHT22;11249;52.468;13.776;2022-09-09T06:26:16;14.10;99.90
22167;DHT22;11249;52.468;13.776;2022-09-09T06:28:49;14.20;99.90
22167;DHT22;11249;52.468;13.776;2022-09-09T06:31:18;14.20;99.90
22167;DHT22;11249;52.468;13.776;2022-09-09T06:33:54;14.30;99.90
22167;DHT22;11249;52.468;13.776;2022-09-09T06:36:23;14.30;99.90
22167;DHT22;11249;52.468;13.776;2022-09-09T06:38:50;14.30;99.90
22167;DHT22;11249;52.468;13.776;2022-09-09T06:41:19;14.30;99.90
22167;DHT22;11249;52.468;13.776;2022-09-09T06:43:47;14.40;99.90
22167;DHT22;11249;52.468;13.776;2022-09-09T06:46:19;14.50;99.90
22167;DHT22;11249;52.468;13.776;2022-09-09T06:48:46;14.50;99.90
22167;DHT22;11249;52.468;13.776;2022-09-09T06:51:19;14.60;99.90
22167;DHT22;11249;52.468;13.776;2022-09-09T06:53:50;14.70;99.90
22167;DHT22;11249;52.468;13.776;2022-09-09T06:56:22;14.70;99.90
22167;DHT22;11249;52.468;13.776;2022-09-09T06:58:51;14.80;99.90
22167;DHT22;11249;52.468;13.776;2022-09-09T07:01:23;14.90;99.90
22167;DHT22;11249;52.468;13.776;2022-09-09T07:03:52;15.00;99.90
22167;DHT22;11249;52.468;13.776;2022-09-09T07:06:29;15.00;99.90
22167;DHT22;11249;52.468;13.776;2022-09-09T07:09:01;15.10;99.90
22167;DHT22;11249;52.468;13.776;2022-09-09T07:11:44;15.10;99.90
22167;DHT22;11249;52.468;13.776;2022-09-09T07:14:11;15.20;99.90
22167;DHT22;11249;52.468;13.776;2022-09-09T07:16:42;15.20;99.90
22167;DHT22;11249;52.468;13.776;2022-09-09T07:19:10;15.20;99.90
22167;DHT22;11249;52.468;13.776;2022-09-09T07:21:37;15.30;99.90
22167;DHT22;11249;52.468;13.776;2022-09-09T07:24:03;15.40;99.90
22167;DHT22;11249;52.468;13.776;2022-09-09T07:26:34;15.50;99.90
22167;DHT22;11249;52.468;13.776;2022-09-09T07:29:00;15.50;99.90
22167;DHT22;11249;52.468;13.776;2022-09-09T07:31:30;15.50;99.90
22167;DHT22;11249;52.468;13.776;2022-09-09T07:33:57;15.60;99.90
22167;DHT22;11249;52.468;13.776;2022-09-09T07:36:29;15.70;99.90
22167;DHT22;11249;52.468;13.776;2022-09-09T07:39:04;15.70;99.90
22167;DHT22;11249;52.468;13.776;2022-09-09T07:41:45;15.80;99.90
22167;DHT22;11249;52.468;13.776;2022-09-09T07:44:15;15.90;99.90
22167;DHT22;11249;52.468;13.776;2022-09-09T07:46:42;16.00;99.90
22167;DHT22;11249;52.468;13.776;2022-09-09T07:49:10;16.00;99.90
22167;DHT22;11249;52.468;13.776;2022-09-09T07:51:39;16.10;99.90
22167;DHT22;11249;52.468;13.776;2022-09-09T07:54:09;16.20;99.90
22167;DHT22;11249;52.468;13.776;2022-09-09T07:56:38;16.30;99.90
22167;DHT22;11249;52.468;13.776;2022-09-09T07:59:06;16.30;99.90
22167;DHT22;11249;52.468;13.776;2022-09-09T08:01:36;16.40;99.90
22167;DHT22;11249;52.468;13.776;2022-09-09T08:04:13;16.40;99.90
22167;DHT22;11249;52.468;13.776;2022-09-09T08:06:47;16.50;99.90
22167;DHT22;11249;52.468;13.776;2022-09-09T08:09:14;16.50;99.90
22167;DHT22;11249;52.468;13.776;2022-09-09T08:11:42;16.60;99.90
22167;DHT22;11249;52.468;13.776;2022-09-09T08:14:10;16.60;99.90
22167;DHT22;11249;52.468;13.776;2022-09-09T08:16:40;16.70;99.90
22167;DHT22;11249;52.468;13.776;2022-09-09T08:19:07;16.70;99.90
22167;DHT22;11249;52.468;13.776;2022-09-09T08:21:36;16.70;99.90
22167;DHT22;11249;52.468;13.776;2022-09-09T08:24:04;16.70;99.90
22167;DHT22;11249;52.468;13.776;2022-09-09T08:26:36;16.80;99.90
22167;DHT22;11249;52.468;13.776;2022-09-09T08:29:05;16.90;99.90
22167;DHT22;11249;52.468;13.776;2022-09-09T08:31:38;17.00;99.90
22167;DHT22;11249;52.468;13.776;2022-09-09T08:34:06;17.10;99.90
22167;DHT22;11249;52.468;13.776;2022-09-09T08:36:36;17.20;99.90
22167;DHT22;11249;52.468;13.776;2022-09-09T08:39:04;17.20;99.90
22167;DHT22;11249;52.468;13.776;2022-09-09T08:50:17;17.50;99.90
22167;DHT22;11249;52.468;13.776;2022-09-09T08:55:50;17.70;99.90
22167;DHT22;11249;52.468;13.776;2022-09-09T08:58:32;17.80;99.90
22167;DHT22;11249;52.468;13.776;2022-09-09T09:03:52;18.10;99.90
22167;DHT22;11249;52.468;13.776;2022-09-09T09:09:42;18.50;99.90
22167;DHT22;11249;52.468;13.776;2022-09-09T09:12:24;18.70;99.90
22167;DHT22;11249;52.468;13.776;2022-09-09T09:14:51;18.90;99.90
22167;DHT22;11249;52.468;13.776;2022-09-09T09:17:20;19.20;99.90
22167;DHT22;11249;52.468;13.776;2022-09-09T09:19:48;19.40;99.90
22167;DHT22;11249;52.468;13.776;2022-09-09T09:22:26;19.50;99.90
22167;DHT22;11249;52.468;13.776;2022-09-09T09:25:22;19.60;99.90
22167;DHT22;11249;52.468;13.776;2022-09-09T09:28:13;19.80;99.90
22167;DHT22;11249;52.468;13.776;2022-09-09T09:31:05;19.80;99.90
22167;DHT22;11249;52.468;13.776;2022-09-09T09:33:50;19.90;99.90
22167;DHT22;11249;52.468;13.776;2022-09-09T09:36:41;19.90;99.90
22167;DHT22;11249;52.468;13.776;2022-09-09T09:39:09;19.80;99.90
22167;DHT22;11249;52.468;13.776;2022-09-09T09:41:57;19.80;99.90
22167;DHT22;11249;52.468;13.776;2022-09-09T09:44:30;19.80;99.90
22167;DHT22;11249;52.468;13.776;2022-09-09T09:49:57;19.80;99.90
22167;DHT22;11249;52.468;13.776;2022-09-09T09:52:28;19.90;99.90
22167;DHT22;11249;52.468;13.776;2022-09-09T09:54:57;19.90;99.90
22167;DHT22;11249;52.468;13.776;2022-09-09T09:57:31;20.00;99.90
22167;DHT22;11249;52.468;13.776;2022-09-09T10:00:14;20.10;99.90
22167;DHT22;11249;52.468;13.776;2022-09-09T10:02:43;20.10;99.90
22167;DHT22;11249;52.468;13.776;2022-09-09T10:05:23;20.30;99.90
22167;DHT22;11249;52.468;13.776;2022-09-09T10:08:11;20.40;99.90
22167;DHT22;11249;52.468;13.776;2022-09-09T10:10:53;20.50;99.90
22167;DHT22;11249;52.468;13.776;2022-09-09T10:13:29;20.60;99.90
22167;DHT22;11249;52.468;13.776;2022-09-09T10:21:36;20.50;99.90
22167;DHT22;11249;52.468;13.776;2022-09-09T10:41:19;21.30;99.90
22167;DHT22;11249;52.468;13.776;2022-09-09T10:55:18;22.60;99.90
22167;DHT22;11249;52.468;13.776;2022-09-09T10:57:48;23.00;99.90
22167;DHT22;11249;52.468;13.776;2022-09-09T11:00:23;23.10;99.90
22167;DHT22;11249;52.468;13.776;2022-09-09T11:02:56;23.10;99.90
22167;DHT22;11249;52.468;13.776;2022-09-09T11:05:41;23.20;99.90
22167;DHT22;11249;52.468;13.776;2022-09-09T11:08:14;23.40;99.90
22167;DHT22;11249;52.468;13.776;2022-09-09T11:10:58;23.60;99.90
22167;DHT22;11249;52.468;13.776;2022-09-09T11:16:16;23.90;99.90
22167;DHT22;11249;52.468;13.776;2022-09-09T11:18:46;24.20;99.90
22167;DHT22;11249;52.468;13.776;2022-09-09T11:21:20;24.60;99.90
22167;DHT22;11249;52.468;13.776;2022-09-09T11:23:53;24.70;99.90
22167;DHT22;11249;52.468;13.776;2022-09-09T11:26:41;25.00;99.90
22167;DHT22;11249;52.468;13.776;2022-09-09T11:40:20;25.80;99.90
22167;DHT22;11249;52.468;13.776;2022-09-09T11:42:48;26.10;99.90
22167;DHT22;11249;52.468;13.776;2022-09-09T11:45:25;26.40;99.90
22167;DHT22;11249;52.468;13.776;2022-09-09T11:47:58;26.60;99.90
22167;DHT22;11249;52.468;13.776;2022-09-09T11:50:29;26.60;99.90
22167;DHT22;11249;52.468;13.776;2022-09-09T11:53:19;26.70;99.90
22167;DHT22;11249;52.468;13.776;2022-09-09T11:56:04;26.90;99.90
22167;DHT22;11249;52.468;13.776;2022-09-09T11:58:37;27.20;99.90
22167;DHT22;11249;52.468;13.776;2022-09-09T12:01:24;27.40;99.90
22167;DHT22;11249;52.468;13.776;2022-09-09T12:06:50;27.30;99.90
22167;DHT22;11249;52.468;13.776;2022-09-09T12:09:36;26.80;99.90
22167;DHT22;11249;52.468;13.776;2022-09-09T12:17:19;27.00;99.90
22167;DHT22;11249;52.468;13.776;2022-09-09T12:19:47;27.10;99.90
22167;DHT22;11249;52.468;13.776;2022-09-09T12:22:24;26.90;99.90
22167;DHT22;11249;52.468;13.776;2022-09-09T12:28:03;27.50;99.90
22167;DHT22;11249;52.468;13.776;2022-09-09T12:33:18;27.00;99.90
22167;DHT22;11249;52.468;13.776;2022-09-09T12:35:54;26.50;99.90
22167;DHT22;11249;52.468;13.776;2022-09-09T12:38:34;26.20;99.90
22167;DHT22;11249;52.468;13.776;2022-09-09T12:41:00;26.50;99.90
22167;DHT22;11249;52.468;13.776;2022-09-09T12:43:28;27.00;99.90
22167;DHT22;11249;52.468;13.776;2022-09-09T12:45:58;27.30;99.90
22167;DHT22;11249;52.468;13.776;2022-09-09T12:48:34;27.60;99.90
22167;DHT22;11249;52.468;13.776;2022-09-09T12:51:05;27.90;99.90
22167;DHT22;11249;52.468;13.776;2022-09-09T12:53:35;28.00;99.90
22167;DHT22;11249;52.468;13.776;2022-09-09T12:56:08;28.10;99.90
22167;DHT22;11249;52.468;13.776;2022-09-09T12:58:36;28.60;99.90
22167;DHT22;11249;52.468;13.776;2022-09-09T13:01:04;28.80;99.90
22167;DHT22;11249;52.468;13.776;2022-09-09T13:03:33;28.90;99.90
22167;DHT22;11249;52.468;13.776;2022-09-09T13:06:33;28.90;99.90
22167;DHT22;11249;52.468;13.776;2022-09-09T13:09:03;29.30;99.90
22167;DHT22;11249;52.468;13.776;2022-09-09T13:11:39;29.50;99.90
22167;DHT22;11249;52.468;13.776;2022-09-09T13:14:21;29.20;99.90
22167;DHT22;11249;52.468;13.776;2022-09-09T13:17:00;29.00;99.90
22167;DHT22;11249;52.468;13.776;2022-09-09T13:19:31;28.80;99.90
22167;DHT22;11249;52.468;13.776;2022-09-09T13:21:59;28.80;99.90
22167;DHT22;11249;52.468;13.776;2022-09-09T13:24:33;28.80;99.90
22167;DHT22;11249;52.468;13.776;2022-09-09T13:27:30;28.90;99.90
22167;DHT22;11249;52.468;13.776;2022-09-09T13:29:57;28.90;99.90
22167;DHT22;11249;52.468;13.776;2022-09-09T13:32:25;28.60;99.90
22167;DHT22;11249;52.468;13.776;2022-09-09T13:35:00;27.90;99.90
22167;DHT22;11249;52.468;13.776;2022-09-09T13:37:35;27.70;99.90
22167;DHT22;11249;52.468;13.776;2022-09-09T13:40:04;27.50;99.90
22167;DHT22;11249;52.468;13.776;2022-09-09T13:42:36;27.20;99.90
22167;DHT22;11249;52.468;13.776;2022-09-09T13:45:06;27.20;99.90
22167;DHT22;11249;52.468;13.776;2022-09-09T13:47:36;27.00;99.90
22167;DHT22;11249;52.468;13.776;2022-09-09T13:50:26;26.80;99.90
22167;DHT22;11249;52.468;13.776;2022-09-09T13:52:54;26.50;99.90
22167;DHT22;11249;52.468;13.776;2022-09-09T13:55:22;26.20;99.90
22167;DHT22;11249;52.468;13.776;2022-09-09T13:58:01;26.00;99.90
22167;DHT22;11249;52.468;13.776;2022-09-09T14:00:30;26.00;99.90
22167;DHT22;11249;52.468;13.776;2022-09-09T14:02:57;25.90;99.90
22167;DHT22;11249;52.468;13.776;2022-09-09T14:05:24;25.70;99.90
22167;DHT22;11249;52.468;13.776;2022-09-09T14:07:51;25.50;99.90
22167;DHT22;11249;52.468;13.776;2022-09-09T14:10:19;25.40;99.90
22167;DHT22;11249;52.468;13.776;2022-09-09T14:12:45;25.20;99.90
22167;DHT22;11249;52.468;13.776;2022-09-09T14:15:13;25.10;99.90
22167;DHT22;11249;52.468;13.776;2022-09-09T14:17:41;25.00;99.90
22167;DHT22;11249;52.468;13.776;2022-09-09T14:20:08;24.90;99.90
22167;DHT22;11249;52.468;13.776;2022-09-09T14:22:35;24.80;99.90
22167;DHT22;11249;52.468;13.776;2022-09-09T14:25:03;24.70;99.90
22167;DHT22;11249;52.468;13.776;2022-09-09T14:27:30;24.60;99.90
22167;DHT22;11249;52.468;13.776;2022-09-09T14:29:57;24.60;99.90
22167;DHT22;11249;52.468;13.776;2022-09-09T14:32:24;24.50;99.90
22167;DHT22;11249;52.468;13.776;2022-09-09T14:34:51;24.50;99.90
22167;DHT22;11249;52.468;13.776;2022-09-09T14:37:18;24.40;99.90
22167;DHT22;11249;52.468;13.776;2022-09-09T14:39:45;24.40;99.90
22167;DHT22;11249;52.468;13.776;2022-09-09T14:42:14;24.40;99.90
22167;DHT22;11249;52.468;13.776;2022-09-09T14:44:41;24.50;99.90
22167;DHT22;11249;52.468;13.776;2022-09-09T14:47:08;24.50;99.90
22167;DHT22;11249;52.468;13.776;2022-09-09T14:49:35;24.60;99.90
22167;DHT22;11249;52.468;13.776;2022-09-09T14:52:03;24.60;99.90
22167;DHT22;11249;52.468;13.776;2022-09-09T14:54:33;24.60;99.90
22167;DHT22;11249;52.468;13.776;2022-09-09T14:57:00;24.60;99.90
22167;DHT22;11249;52.468;13.776;2022-09-09T14:59:26;24.70;99.90
22167;DHT22;11249;52.468;13.776;2022-09-09T15:01:53;25.00;99.90
22167;DHT22;11249;52.468;13.776;2022-09-09T15:04:20;25.60;99.90
22167;DHT22;11249;52.468;13.776;2022-09-09T15:06:47;25.90;99.90
22167;DHT22;11249;52.468;13.776;2022-09-09T15:09:15;25.90;99.90
22167;DHT22;11249;52.468;13.776;2022-09-09T15:11:41;25.60;99.90
22167;DHT22;11249;52.468;13.776;2022-09-09T15:14:09;25.30;99.90
22167;DHT22;11249;52.468;13.776;2022-09-09T15:16:39;25.10;99.90
22167;DHT22;11249;52.468;13.776;2022-09-09T15:19:06;24.80;99.90
22167;DHT22;11249;52.468;13.776;2022-09-09T15:21:35;24.70;99.90
22167;DHT22;11249;52.468;13.776;2022-09-09T15:24:02;24.50;99.90
22167;DHT22;11249;52.468;13.776;2022-09-09T15:26:29;24.20;99.90
22167;DHT22;11249;52.468;13.776;2022-09-09T15:28:56;24.10;99.90
22167;DHT22;11249;52.468;13.776;2022-09-09T15:31:29;24.10;99.90
22167;DHT22;11249;52.468;13.776;2022-09-09T15:34:05;24.00;99.90
22167;DHT22;11249;52.468;13.776;2022-09-09T15:36:34;24.00;99.90
22167;DHT22;11249;52.468;13.776;2022-09-09T15:39:03;24.00;99.90
22167;DHT22;11249;52.468;13.776;2022-09-09T15:41:30;23.90;99.90
22167;DHT22;11249;52.468;13.776;2022-09-09T15:43:58;23.90;99.90
22167;DHT22;11249;52.468;13.776;2022-09-09T15:46:33;23.90;99.90
22167;DHT22;11249;52.468;13.776;2022-09-09T15:49:06;23.80;99.90
22167;DHT22;11249;52.468;13.776;2022-09-09T15:51:33;23.80;99.90
22167;DHT22;11249;52.468;13.776;2022-09-09T15:54:17;24.00;99.90
22167;DHT22;11249;52.468;13.776;2022-09-09T15:56:46;23.80;99.90
22167;DHT22;11249;52.468;13.776;2022-09-09T15:59:14;23.50;99.90
22167;DHT22;11249;52.468;13.776;2022-09-09T16:01:41;23.50;99.90
22167;DHT22;11249;52.468;13.776;2022-09-09T16:04:10;23.30;99.90
22167;DHT22;11249;52.468;13.776;2022-09-09T16:06:37;23.30;99.90
22167;DHT22;11249;52.468;13.776;2022-09-09T16:09:05;23.20;99.90
22167;DHT22;11249;52.468;13.776;2022-09-09T16:11:34;23.20;99.90
22167;DHT22;11249;52.468;13.776;2022-09-09T16:14:02;23.20;99.90
22167;DHT22;11249;52.468;13.776;2022-09-09T16:16:30;23.10;99.90
22167;DHT22;11249;52.468;13.776;2022-09-09T16:19:04;23.10;99.90
22167;DHT22;11249;52.468;13.776;2022-09-09T16:21:52;22.60;99.90
22167;DHT22;11249;52.468;13.776;2022-09-09T16:24:20;22.20;99.90
22167;DHT22;11249;52.468;13.776;2022-09-09T16:26:49;22.10;99.90
22167;DHT22;11249;52.468;13.776;2022-09-09T16:29:18;21.90;99.90
22167;DHT22;11249;52.468;13.776;2022-09-09T16:31:45;21.70;99.90
22167;DHT22;11249;52.468;13.776;2022-09-09T16:34:13;21.50;99.90
22167;DHT22;11249;52.468;13.776;2022-09-09T16:36:42;21.30;99.90
22167;DHT22;11249;52.468;13.776;2022-09-09T16:39:14;21.10;99.90
22167;DHT22;11249;52.468;13.776;2022-09-09T16:41:42;20.90;99.90
22167;DHT22;11249;52.468;13.776;2022-09-09T16:44:11;20.70;99.90
22167;DHT22;11249;52.468;13.776;2022-09-09T16:46:40;20.70;99.90
22167;DHT22;11249;52.468;13.776;2022-09-09T16:49:10;20.50;99.90
22167;DHT22;11249;52.468;13.776;2022-09-09T16:51:43;20.40;99.90
22167;DHT22;11249;52.468;13.776;2022-09-09T16:54:11;20.20;99.90
22167;DHT22;11249;52.468;13.776;2022-09-09T16:56:40;20.00;99.90
22167;DHT22;11249;52.468;13.776;2022-09-09T16:59:12;19.90;99.90
22167;DHT22;11249;52.468;13.776;2022-09-09T17:01:41;19.80;99.90
22167;DHT22;11249;52.468;13.776;2022-09-09T17:04:17;19.80;99.90
22167;DHT22;11249;52.468;13.776;2022-09-09T17:06:48;19.70;99.90
22167;DHT22;11249;52.468;13.776;2022-09-09T17:09:19;19.50;99.90
22167;DHT22;11249;52.468;13.776;2022-09-09T17:11:47;19.40;99.90
22167;DHT22;11249;52.468;13.776;2022-09-09T17:14:16;19.30;99.90
22167;DHT22;11249;52.468;13.776;2022-09-09T17:16:44;19.30;99.90
22167;DHT22;11249;52.468;13.776;2022-09-09T17:19:11;19.20;99.90
22167;DHT22;11249;52.468;13.776;2022-09-09T17:21:38;19.10;99.90
22167;DHT22;11249;52.468;13.776;2022-09-09T17:24:25;19.00;99.90
22167;DHT22;11249;52.468;13.776;2022-09-09T17:26:52;19.00;99.90
22167;DHT22;11249;52.468;13.776;2022-09-09T17:29:21;18.90;99.90
22167;DHT22;11249;52.468;13.776;2022-09-09T17:31:48;18.90;99.90
22167;DHT22;11249;52.468;13.776;2022-09-09T17:34:14;18.90;99.90
22167;DHT22;11249;52.468;13.776;2022-09-09T17:36:41;18.90;99.90
22167;DHT22;11249;52.468;13.776;2022-09-09T17:39:07;18.90;99.90
22167;DHT22;11249;52.468;13.776;2022-09-09T17:41:36;18.80;99.90